Time;durP1;ratioP1;P1;durP2;ratioP2;P2;SDS_P1;SDS_P2;PMS_P1;PMS_P2;Temp;Humidity;BMP_temperature;BMP_pressure;BME280_temperature;BME280_humidity;BME280_pressure;Samples;Min_cycle;Max_cycle;Signal;HPM_P1;HPM_P2
2023/01/01 00:38:15;1269423.00;4.23;2216.25;91991.00;0.31;159.75;;;;;14.40;1.00;;;;;;2507966;55;3537;31
2023/01/01 01:46:17;1472631.00;4.91;2591.73;126159.00;0.42;218.71;;;;;13.70;1.00;;;;;;2267094;61;1340;-90
2023/01/01 01:51:14;770457.00;2.57;1329.65;0.00;0.00;0.62;;;;;13.90;1.00;;;;;;2432143;40;3432;-89
2023/01/01 03:02:08;417044.00;1.39;719.11;0.00;0.00;0.62;;;;;15.10;1.00;;;;;;2266549;61;1335;-89
2023/01/01 05:00:42;902032.00;3.01;1559.69;0.00;0.00;0.62;;;;;14.90;1.00;;;;;;2506416;40;3446;31
2023/01/01 05:43:26;634364.00;2.11;1093.59;0.00;0.00;0.62;;;;;14.40;1.00;;;;;;2266475;61;1105;-90
2023/01/01 05:46:01;292573.00;0.98;505.15;0.00;0.00;0.62;;;;;14.30;1.00;;;;;;2265059;61;1566;-92
2023/01/01 05:51:02;508103.00;1.69;875.78;45819.00;0.15;79.95;;;;;14.10;1.00;;;;;;2266674;61;1320;-89
2023/01/01 07:34:30;120225832.00;400.75;70396320.00;103047.00;0.34;178.83;;;;;12.40;1.00;;;;;;2504468;55;3563;31
2023/01/01 07:44:24;572163.00;1.91;986.18;23848.00;0.08;41.93;;;;;12.60;1.00;;;;;;2504868;55;3563;31
2023/01/01 08:27:15;1501729.00;5.01;2646.37;230090.00;0.77;397.70;;;;;12.00;2.50;;;;;;2266356;61;971;-91
2023/01/01 08:32:12;512323.00;1.71;883.04;0.00;0.00;0.62;;;;;12.10;1.00;;;;;;2266698;61;1354;-90
2023/01/01 08:34:39;103996.00;0.35;180.47;0.00;0.00;0.62;;;;;12.00;1.20;;;;;;2264715;61;1590;-90
2023/01/01 09:14:53;327206.00;1.09;564.68;0.00;0.00;0.62;;;;;13.60;1.00;;;;;;2266656;61;1313;-90
2023/01/01 09:17:20;149439.00;0.50;258.84;0.00;0.00;0.62;;;;;13.90;1.00;;;;;;2265241;61;1549;-90
2023/01/01 09:19:47;262962.00;0.88;454.24;0.00;0.00;0.62;;;;;14.10;1.00;;;;;;2265222;61;1777;-91
2023/01/01 09:22:14;339290.00;1.13;585.45;14160.00;0.05;25.16;;;;;14.30;1.00;;;;;;2265201;61;1569;-89
2023/01/01 09:24:41;203686.00;0.68;352.27;0.00;0.00;0.62;;;;;14.50;1.00;;;;;;2265137;61;1658;-88
2023/01/01 09:27:08;1908815.00;6.36;3438.74;157502.00;0.53;272.74;;;;;14.60;1.00;;;;;;2265166;61;1472;-89
2023/01/01 09:29:35;1668366.00;5.56;2964.12;90481.00;0.30;157.14;;;;;14.70;1.00;;;;;;2265166;61;2008;-90
2023/01/01 09:32:04;1184882.00;3.95;2062.91;187123.00;0.62;323.76;;;;;14.80;1.00;;;;;;2265244;61;1187;-91
2023/01/01 09:34:30;440955.00;1.47;760.23;90930.00;0.30;157.91;;;;;15.00;1.00;;;;;;2265166;61;1704;-89
2023/01/01 09:36:57;671783.00;2.24;1158.34;97738.00;0.33;169.67;;;;;15.00;1.00;;;;;;2265137;61;1614;-88
2023/01/01 09:39:25;310745.00;1.04;536.39;84516.00;0.28;146.84;;;;;15.20;1.00;;;;;;2264961;61;1586;-90
2023/01/01 09:42:07;377760.00;1.26;651.58;0.00;0.00;0.62;;;;;15.30;1.00;;;;;;2265149;61;1568;-90
2023/01/01 09:47:22;456351.00;1.52;786.71;0.00;0.00;0.62;;;;;15.30;1.00;;;;;;2266609;61;1300;-90
2023/01/01 11:05:28;671673.00;2.24;1158.15;0.00;0.00;0.62;;;;;17.10;1.00;;;;;;2270390;61;1064;-89
2023/01/01 11:10:27;786611.00;2.62;1357.78;0.00;0.00;0.62;;;;;17.30;1.00;;;;;;2266688;61;1882;-91
2023/01/01 11:26:20;675474.00;2.25;1164.73;0.00;0.00;0.62;;;;;18.20;1.00;;;;;;2506291;40;3565;31
2023/01/01 12:11:48;418587.00;1.40;721.76;0.00;0.00;0.62;;;;;19.70;1.00;;;;;;2266677;61;1214;-90
2023/01/01 13:46:19;838848.00;2.80;1448.96;68902.00;0.23;119.86;;;;;20.50;1.00;;;;;;2263193;61;1337;-90
2023/01/01 13:54:32;516205.00;1.72;889.73;0.00;0.00;0.62;;;;;20.80;1.00;;;;;;2363794;40;3518;-90
2023/01/01 14:35:04;678159.00;2.26;1169.38;0.00;0.00;0.62;;;;;19.90;1.00;;;;;;2313794;55;3688;-87
2023/01/01 14:40:25;1450372.00;4.83;2550.08;72603.00;0.24;126.26;;;;;19.60;1.00;;;;;;1571017;40;3600;-87
2023/01/01 15:00:42;421573.00;1.41;726.90;0.00;0.00;0.62;;;;;19.30;1.00;;;;;;2093123;55;3529;-89
2023/01/01 15:36:15;39287.00;0.13;68.65;0.00;0.00;0.62;;;;;17.90;1.00;;;;;;546108;40;3228;-89
2023/01/01 16:11:18;284256.00;0.95;490.85;0.00;0.00;0.62;;;;;17.20;1.00;;;;;;2265669;61;1911;-90
2023/01/01 16:16:29;248090.00;0.83;428.67;0.00;0.00;0.62;;;;;17.00;1.00;;;;;;2266619;61;1338;-90
2023/01/01 16:21:38;496261.00;1.65;855.39;0.00;0.00;0.62;;;;;16.90;1.00;;;;;;2289991;55;3631;-88
2023/01/01 16:24:16;542887.00;1.81;935.70;34585.00;0.12;60.52;;;;;16.80;1.00;;;;;;2268607;61;1567;-88
2023/01/01 16:31:46;657845.00;2.19;1134.21;85764.00;0.29;148.99;;;;;16.80;1.00;;;;;;2265442;61;1766;-88
2023/01/01 16:34:15;357943.00;1.19;617.51;82475.00;0.27;143.31;;;;;16.80;1.00;;;;;;2263930;61;902;-88
2023/01/01 16:36:42;247976.00;0.83;428.47;70492.00;0.23;122.61;;;;;16.80;1.00;;;;;;2264051;61;1721;-88
2023/01/01 16:39:09;390086.00;1.30;672.76;31693.00;0.11;55.51;;;;;16.90;1.00;;;;;;2264026;61;1444;-88
2023/01/01 16:41:40;241557.00;0.81;417.43;0.00;0.00;0.62;;;;;17.00;1.00;;;;;;2264097;61;1393;-89
2023/01/01 16:44:07;35426.00;0.12;61.97;0.00;0.00;0.62;;;;;16.90;1.00;;;;;;2264031;61;1630;-88
2023/01/01 16:46:33;156663.00;0.52;271.29;0.00;0.00;0.62;;;;;16.90;1.00;;;;;;2263912;61;1463;-87
2023/01/01 16:49:03;60232.00;0.20;104.88;0.00;0.00;0.62;;;;;16.60;1.00;;;;;;2264067;61;1020;-88
2023/01/01 16:51:31;147230.00;0.49;255.03;0.00;0.00;0.62;;;;;16.60;1.00;;;;;;2263901;61;2019;-88
2023/01/01 16:53:59;0.00;0.00;0.62;0.00;0.00;0.62;;;;;16.60;1.00;;;;;;2267061;61;1285;-88
2023/01/01 16:56:26;78079.00;0.26;135.72;0.00;0.00;0.62;;;;;16.60;1.00;;;;;;2264055;61;1231;-87
2023/01/01 16:58:54;82026.00;0.27;142.54;0.00;0.00;0.62;;;;;16.60;1.00;;;;;;2263801;61;1726;-88
2023/01/01 17:01:21;175592.00;0.59;303.90;0.00;0.00;0.62;;;;;16.60;1.00;;;;;;2263918;61;1404;-87
2023/01/01 17:03:48;157564.00;0.53;272.84;0.00;0.00;0.62;;;;;16.60;1.00;;;;;;2288540;40;3636;-87
2023/01/01 17:06:17;251878.00;0.84;435.18;0.00;0.00;0.62;;;;;16.70;1.00;;;;;;2267997;61;943;-87
2023/01/01 17:08:44;42805.00;0.14;74.74;0.00;0.00;0.62;;;;;16.70;1.00;;;;;;2267996;61;1730;-87
2023/01/01 17:11:13;472873.00;1.58;815.13;31313.00;0.10;54.86;;;;;16.60;1.00;;;;;;2267679;61;1922;-87
2023/01/01 17:13:44;212278.00;0.71;367.06;0.00;0.00;0.62;;;;;16.60;1.00;;;;;;2267993;61;982;-87
2023/01/01 17:16:12;201179.00;0.67;347.95;0.00;0.00;0.62;;;;;16.70;1.00;;;;;;2267766;61;2081;-86
2023/01/01 17:18:39;361960.00;1.21;624.42;63055.00;0.21;109.76;;;;;16.70;1.00;;;;;;2268238;61;992;-88
2023/01/01 17:21:07;372116.00;1.24;641.87;15692.00;0.05;27.81;;;;;16.90;1.00;;;;;;2268521;61;1594;-88
2023/01/01 17:23:37;274188.00;0.91;473.54;34910.00;0.12;61.08;;;;;17.00;1.00;;;;;;2268538;61;1507;-87
2023/01/01 17:26:11;784042.00;2.61;1353.31;0.00;0.00;0.62;;;;;16.90;1.00;;;;;;2268364;61;1708;-86
2023/01/01 17:31:10;897944.00;2.99;1552.51;84330.00;0.28;146.52;;;;;16.70;1.00;;;;;;2266324;61;1981;-89
2023/01/01 17:33:38;1081002.00;3.60;1876.48;127964.00;0.43;221.82;;;;;16.60;1.00;;;;;;2264566;61;1698;-89
2023/01/01 17:36:06;1729980.00;5.77;3083.82;127276.00;0.42;220.63;;;;;16.10;1.00;;;;;;2264426;61;1079;-87
2023/01/01 17:38:34;613984.00;2.05;1058.37;89463.00;0.30;155.38;;;;;16.10;1.00;;;;;;2264500;61;1429;-87
2023/01/01 17:41:03;368509.00;1.23;635.67;85741.00;0.29;148.95;;;;;16.20;1.00;;;;;;2264520;61;1590;-88
2023/01/01 17:43:32;463325.00;1.54;798.70;139652.00;0.47;241.97;;;;;16.40;1.00;;;;;;2264514;61;1587;-89
2023/01/01 17:46:03;110768.00;0.37;192.16;0.00;0.00;0.62;;;;;16.50;1.00;;;;;;2264512;61;1139;-88
2023/01/01 17:48:30;302417.00;1.01;522.07;37934.00;0.13;66.31;;;;;16.60;1.00;;;;;;2264521;61;1497;-88
2023/01/01 17:50:57;121912.00;0.41;211.38;34392.00;0.11;60.18;;;;;16.40;1.00;;;;;;2264413;61;1992;-88
2023/01/01 17:53:24;272069.00;0.91;469.90;11782.00;0.04;21.04;;;;;16.20;1.00;;;;;;2264432;61;1518;-87
2023/01/01 17:55:52;126654.00;0.42;219.56;0.00;0.00;0.62;;;;;16.20;1.00;;;;;;2264547;61;901;-88
2023/01/01 17:58:20;11948.00;0.04;21.32;0.00;0.00;0.62;;;;;16.20;1.00;;;;;;2264618;61;1005;-87
2023/01/01 18:00:47;150000.00;0.50;259.81;0.00;0.00;0.62;;;;;16.00;1.00;;;;;;2264356;61;1481;-88
2023/01/01 18:03:15;298997.00;1.00;516.20;0.00;0.00;0.62;;;;;16.10;1.00;;;;;;2264443;61;1323;-89
2023/01/01 18:05:42;1279488.00;4.26;2234.61;110032.00;0.37;190.89;;;;;16.20;1.00;;;;;;2264516;61;2265;-87
2023/01/01 18:10:44;1200223.00;4.00;2090.62;96396.00;0.32;167.35;;;;;16.30;1.00;;;;;;754183;60;3426;-88
2023/01/01 18:13:12;1044730.00;3.48;1811.86;47298.00;0.16;82.51;;;;;16.20;1.00;;;;;;2264565;61;1371;-88
2023/01/01 18:15:40;1395841.00;4.65;2448.61;54246.00;0.18;94.53;;;;;16.30;1.00;;;;;;2264420;61;1011;-88
2023/01/01 18:18:07;1198347.00;3.99;2087.23;200148.00;0.67;346.18;;;;;16.10;1.00;;;;;;2264343;61;1075;-88
2023/01/01 18:20:34;429475.00;1.43;740.48;84922.00;0.28;147.54;;;;;15.90;1.00;;;;;;2264542;61;905;-89
2023/01/01 18:23:01;711407.00;2.37;1227.03;114171.00;0.38;198.03;;;;;15.90;1.00;;;;;;2264374;61;1295;-90
2023/01/01 18:25:28;403364.00;1.34;695.59;87593.00;0.29;152.15;;;;;15.80;1.00;;;;;;2264510;61;930;-87
2023/01/01 18:33:00;595592.00;1.99;1026.61;36359.00;0.12;63.59;;;;;15.60;1.00;;;;;;2265727;61;1431;-87
2023/01/01 18:35:27;531219.00;1.77;915.59;33970.00;0.11;59.45;;;;;15.30;1.00;;;;;;2264370;61;1469;-88
2023/01/01 18:37:54;128477.00;0.43;222.70;0.00;0.00;0.62;;;;;15.00;1.00;;;;;;2264293;61;1446;-88
2023/01/01 18:40:22;225961.00;0.75;390.60;0.00;0.00;0.62;;;;;15.00;1.00;;;;;;2264142;61;991;-87
2023/01/01 18:42:59;336216.00;1.12;580.17;24313.00;0.08;42.74;;;;;15.00;1.00;;;;;;2264345;61;1369;-88
2023/01/01 18:45:26;129021.00;0.43;223.64;0.00;0.00;0.62;;;;;15.00;1.00;;;;;;2264359;61;1014;-88
2023/01/01 18:47:53;1547306.00;5.16;2732.45;220640.00;0.74;381.44;;;;;15.10;1.00;;;;;;2264363;61;1058;-89
2023/01/01 18:50:25;840099.00;2.80;1451.15;124965.00;0.42;216.65;;;;;15.10;1.00;;;;;;2264305;61;1940;-87
2023/01/01 18:52:54;572715.00;1.91;987.13;80277.00;0.27;139.52;;;;;15.10;1.00;;;;;;2264202;61;1506;-89
2023/01/01 18:55:25;489711.00;1.63;844.11;0.00;0.00;0.62;;;;;15.20;1.00;;;;;;2264239;61;1449;-87
2023/01/01 18:57:59;113808.00;0.38;197.40;12237.00;0.04;21.82;;;;;15.30;1.00;;;;;;2264375;61;1729;-88
2023/01/01 19:00:29;266145.00;0.89;459.72;0.00;0.00;0.62;;;;;15.30;1.00;;;;;;2264202;61;958;-88
2023/01/01 19:02:58;310614.00;1.04;536.16;14014.00;0.05;24.90;;;;;15.40;1.00;;;;;;2271128;40;3646;-88
2023/01/01 19:05:35;175515.00;0.59;303.77;0.00;0.00;0.62;;;;;15.50;1.00;;;;;;2268254;61;1999;-89
2023/01/01 19:08:14;342606.00;1.14;591.15;18981.00;0.06;33.51;;;;;15.80;1.00;;;;;;2268157;61;1559;-87
2023/01/01 19:10:45;1304262.00;4.35;2279.91;125802.00;0.42;218.09;;;;;15.60;1.00;;;;;;2268175;61;1923;-88
2023/01/01 19:13:18;1638487.00;5.46;2906.52;151696.00;0.51;262.73;;;;;15.60;1.00;;;;;;2268200;61;1386;-89
2023/01/01 19:15:47;1620602.00;5.40;2872.18;115574.00;0.39;200.45;;;;;15.80;1.00;;;;;;2268233;61;1099;-89
2023/01/01 19:18:17;1548420.00;5.16;2734.57;176234.00;0.59;305.00;;;;;15.90;1.00;;;;;;2268346;61;1566;-87
2023/01/01 19:20:46;1172055.00;3.91;2039.78;123809.00;0.41;214.65;;;;;15.90;1.00;;;;;;2268342;61;1720;-89
2023/01/01 19:23:21;696708.00;2.32;1201.53;87043.00;0.29;151.20;;;;;16.00;1.00;;;;;;2268266;61;1208;-88
2023/01/01 19:25:50;126365968.00;421.22;81753800.00;87713.00;0.29;152.36;;;;;16.00;1.00;;;;;;2268272;61;1540;-88
2023/01/01 19:28:31;678471.00;2.26;1169.92;82518.00;0.28;143.39;;;;;16.00;1.00;;;;;;2268285;61;1075;-89
2023/01/01 19:30:59;731381.00;2.44;1261.70;83468.00;0.28;145.03;;;;;15.80;1.00;;;;;;2268113;61;1923;-87
2023/01/01 19:33:27;316343.00;1.05;546.01;83122.00;0.28;144.43;;;;;15.60;1.00;;;;;;2268340;61;1012;-88
2023/01/01 19:35:55;635846.00;2.12;1096.16;138033.00;0.46;239.18;;;;;15.30;1.00;;;;;;2268170;61;1008;-88
2023/01/01 19:38:22;128670.00;0.43;223.04;0.00;0.00;0.62;;;;;15.30;1.00;;;;;;2268250;61;1509;-88
2023/01/01 19:40:49;303656.00;1.01;524.20;390.00;0.00;1.30;;;;;15.40;1.00;;;;;;2267977;61;1570;-88
2023/01/01 19:43:16;87925.00;0.29;152.72;0.00;0.00;0.62;;;;;15.20;1.00;;;;;;2268141;61;1619;-89
2023/01/01 19:45:43;300204.00;1.00;518.27;0.00;0.00;0.62;;;;;15.20;1.00;;;;;;2268314;61;903;-88
2023/01/01 19:48:10;589974.00;1.97;1016.91;6364.00;0.02;11.65;;;;;15.00;1.00;;;;;;2268175;61;1724;-88
2023/01/01 19:50:37;321982.00;1.07;555.70;0.00;0.00;0.62;;;;;15.00;1.00;;;;;;2268174;61;1959;-87
2023/01/01 19:55:35;221135.00;0.74;382.30;0.00;0.00;0.62;;;;;14.90;1.00;;;;;;2265965;61;1417;-88
2023/01/01 19:58:05;402976.00;1.34;694.92;16683.00;0.06;29.53;;;;;14.90;1.00;;;;;;2264203;61;995;-88
2023/01/01 20:00:34;40546.00;0.14;70.83;0.00;0.00;0.62;;;;;14.70;1.00;;;;;;2264089;61;1149;-88
2023/01/01 20:03:01;555743.00;1.85;957.86;30837.00;0.10;54.03;;;;;14.60;1.00;;;;;;2264010;61;1557;-88
2023/01/01 20:05:28;26741.00;0.09;46.94;0.00;0.00;0.62;;;;;14.50;1.00;;;;;;2264142;61;918;-88
2023/01/01 20:07:55;80359.00;0.27;139.66;5187.00;0.02;9.61;;;;;14.40;1.00;;;;;;2264095;61;1093;-88
2023/01/01 20:10:22;563433.00;1.88;971.12;51582.00;0.17;89.92;;;;;14.30;1.00;;;;;;2264198;61;1917;-88
2023/01/01 20:12:51;1536002.00;5.12;2711.05;242506.00;0.81;419.06;;;;;14.10;1.00;;;;;;2264038;61;1322;-87
2023/01/01 20:15:17;1221141.00;4.07;2128.49;161938.00;0.54;280.38;;;;;14.10;1.00;;;;;;2264136;61;980;-87
2023/01/01 20:17:44;1247746.00;4.16;2176.79;42234.00;0.14;73.75;;;;;14.10;1.00;;;;;;2264134;61;1026;-88
2023/01/01 20:20:12;1508797.00;5.03;2659.68;176670.00;0.59;305.75;;;;;14.30;1.00;;;;;;2264153;61;2006;-88
2023/01/01 20:22:39;812465.00;2.71;1402.87;77385.00;0.26;134.52;;;;;14.40;1.00;;;;;;2264098;61;1381;-87
2023/01/01 20:25:08;269729.00;0.90;465.88;84351.00;0.28;146.55;;;;;14.40;1.00;;;;;;2264138;61;1110;-86
2023/01/01 20:29:17;555037.00;1.85;956.64;126825.00;0.42;219.85;;;;;14.30;1.00;;;;;;2264039;61;1008;-87
2023/01/01 20:30:26;380439.00;1.27;656.18;89511.00;0.30;155.46;;;;;14.00;1.00;;;;;;2264016;61;1345;-87
2023/01/01 20:32:56;159540.00;0.53;276.25;0.00;0.00;0.62;;;;;13.80;1.00;;;;;;2264007;61;1475;-91
2023/01/01 20:38:05;483744.00;1.61;833.84;0.00;0.00;0.62;;;;;13.70;1.00;;;;;;2298855;56;3733;-89
2023/01/01 20:40:32;425524.00;1.42;733.69;62950.00;0.21;109.58;;;;;13.70;1.00;;;;;;2267962;61;1454;-87
2023/01/01 20:43:04;315898.00;1.05;545.25;8623.00;0.03;15.56;;;;;13.90;1.00;;;;;;2267902;61;1258;-87
2023/01/01 20:45:33;26214.00;0.09;46.03;0.00;0.00;0.62;;;;;14.10;1.00;;;;;;2268064;61;1699;-88
2023/01/01 20:48:02;534422.00;1.78;921.11;46611.00;0.16;81.32;;;;;14.30;1.00;;;;;;2267905;61;1164;-88
2023/01/01 20:50:32;629165.00;2.10;1084.61;45089.00;0.15;78.69;;;;;14.20;1.00;;;;;;2267906;61;987;-88
2023/01/01 20:53:01;332829.00;1.11;574.35;1776.00;0.01;3.70;;;;;14.00;1.00;;;;;;2276088;56;3840;-85
2023/01/01 20:55:28;1292141.00;4.31;2257.73;56032.00;0.19;97.62;;;;;14.20;1.00;;;;;;2268232;61;1844;-87
2023/01/01 20:57:55;1205742.00;4.02;2100.60;74279.00;0.25;129.15;;;;;14.30;1.00;;;;;;2268713;61;906;-87
2023/01/01 21:00:22;1342482.00;4.47;2350.07;131863.00;0.44;228.54;;;;;14.60;1.00;;;;;;2268692;61;2053;-88
2023/01/01 21:02:52;1352542.00;4.51;2368.59;72732.00;0.24;126.48;;;;;14.70;1.00;;;;;;2268711;61;1391;-88
2023/01/01 21:05:18;1039910.00;3.47;1803.29;50242.00;0.17;87.60;;;;;14.90;1.00;;;;;;2268545;61;1015;-87
2023/01/01 21:07:45;1637178.00;5.46;2904.00;58415.00;0.19;101.74;;;;;14.90;1.00;;;;;;2268643;61;1020;-87
2023/01/01 21:10:12;932564.00;3.11;1613.39;97570.00;0.33;169.38;;;;;14.60;1.00;;;;;;2268782;61;990;-89
2023/01/01 21:12:41;359522.00;1.20;620.23;84860.00;0.28;147.43;;;;;14.70;1.00;;;;;;2268695;61;2029;-88
2023/01/01 21:15:15;590464.00;1.97;1017.76;165930.00;0.55;287.26;;;;;14.60;1.00;;;;;;2268792;61;1071;-86
2023/01/01 21:17:43;120556.00;0.40;209.04;0.00;0.00;0.62;;;;;14.50;1.00;;;;;;2268709;61;1078;-87
2023/01/01 21:20:15;163481.00;0.54;283.04;0.00;0.00;0.62;;;;;14.50;1.00;;;;;;2268631;61;937;-89
2023/01/01 21:22:42;36347.00;0.12;63.57;0.00;0.00;0.62;;;;;14.50;1.00;;;;;;2268356;61;1453;-88
2023/01/01 21:25:22;154639.00;0.52;267.80;0.00;0.00;0.62;;;;;14.40;1.00;;;;;;2268505;61;1456;-87
2023/01/01 21:27:49;107060.00;0.36;185.76;0.00;0.00;0.62;;;;;14.30;1.00;;;;;;2268694;61;1417;-88
2023/01/01 21:30:17;318431.00;1.06;549.60;39293.00;0.13;68.67;;;;;14.20;1.00;;;;;;2268637;61;1452;-88
2023/01/01 21:32:46;763168.00;2.54;1316.96;72994.00;0.24;126.93;;;;;13.90;1.00;;;;;;2268377;61;1947;-87
2023/01/01 21:35:21;953703.00;3.18;1650.64;19615.00;0.07;34.60;;;;;13.50;1.00;;;;;;2268611;61;977;-88
2023/01/01 21:37:51;190628.00;0.64;329.79;0.00;0.00;0.62;;;;;13.50;1.00;;;;;;2268534;61;1022;-88
2023/01/01 21:40:39;458989.00;1.53;791.25;0.00;0.00;0.62;;;;;13.40;1.00;;;;;;2268475;61;1051;-88
2023/01/01 21:43:26;299105.00;1.00;516.38;0.00;0.00;0.62;;;;;13.60;1.00;;;;;;2268480;61;1487;-89
2023/01/01 21:45:56;134921.00;0.45;233.81;0.00;0.00;0.62;;;;;13.70;1.00;;;;;;2268709;61;1013;-89
2023/01/01 21:48:28;163610.00;0.55;283.26;0.00;0.00;0.62;;;;;13.80;1.00;;;;;;2268637;61;997;-86
2023/01/01 21:50:57;254304.00;0.85;439.35;0.00;0.00;0.62;;;;;13.80;1.00;;;;;;2268511;61;1916;-86
2023/01/01 21:53:28;115389.00;0.38;200.13;0.00;0.00;0.62;;;;;13.90;1.00;;;;;;2268566;61;1191;-88
2023/01/01 21:55:56;1928523.00;6.43;3478.58;194636.00;0.65;336.69;;;;;14.20;1.00;;;;;;2268628;61;1096;-89
2023/01/01 22:01:20;1373758.00;4.58;2407.74;145579.00;0.49;252.19;;;;;14.10;1.00;;;;;;2268597;61;1432;-86
2023/01/01 22:03:51;1031228.00;3.44;1787.86;142494.00;0.47;246.87;;;;;14.20;1.00;;;;;;2268332;61;994;-88
2023/01/01 22:06:19;309100.00;1.03;533.56;83792.00;0.28;145.59;;;;;14.20;1.00;;;;;;2268363;61;1613;-88
2023/01/01 22:08:47;146483.00;0.49;253.75;0.00;0.00;0.62;;;;;14.40;1.00;;;;;;2268505;61;1099;-88
2023/01/01 22:11:24;105159.00;0.35;182.48;0.00;0.00;0.62;;;;;14.40;1.00;;;;;;2268414;61;2011;-88
2023/01/01 22:13:50;162106.00;0.54;280.67;0.00;0.00;0.62;;;;;14.40;1.00;;;;;;2268543;61;1137;-87
2023/01/01 22:16:26;102220.00;0.34;177.40;0.00;0.00;0.62;;;;;14.10;1.00;;;;;;2268501;61;953;-88
2023/01/01 22:18:53;566822.00;1.89;976.97;13097.00;0.04;23.31;;;;;14.10;1.00;;;;;;2268416;61;1084;-87
2023/01/01 22:21:22;1568703.00;5.23;2773.08;185322.00;0.62;320.65;;;;;14.20;1.00;;;;;;2268439;61;1281;-88
2023/01/01 22:23:49;120166280.00;400.55;70291656.00;152526.00;0.51;264.16;;;;;14.20;1.00;;;;;;2268339;61;1031;-87
2023/01/01 22:26:22;438167.00;1.46;755.43;0.00;0.00;0.62;;;;;14.20;1.00;;;;;;2268348;61;1023;-88
2023/01/01 22:28:53;273416.00;0.91;472.22;45965.00;0.15;80.21;;;;;14.20;1.00;;;;;;2268222;61;1593;-88
2023/01/01 22:31:23;158440.00;0.53;274.35;0.00;0.00;0.62;;;;;14.10;1.00;;;;;;2268347;61;1998;-87
2023/01/01 22:33:52;1342400.00;4.47;2349.91;30397.00;0.10;53.27;;;;;14.00;1.00;;;;;;2268261;61;1019;-87
2023/01/01 22:36:28;794842.00;2.65;1372.13;87102.00;0.29;151.30;;;;;13.80;1.00;;;;;;2267790;61;1465;-88
2023/01/01 22:39:02;1705185.00;5.68;3035.50;205652.00;0.69;355.65;;;;;13.70;1.00;;;;;;2268330;61;1388;-87
2023/01/01 22:41:30;629134.00;2.10;1084.55;37307.00;0.12;65.23;;;;;13.70;1.00;;;;;;2268161;61;1365;-87
2023/01/01 22:44:00;238673.00;0.80;412.47;0.00;0.00;0.62;;;;;13.70;1.00;;;;;;2268078;61;1497;-86
2023/01/01 22:46:31;1946848.00;6.49;3515.75;135432.00;0.45;234.70;;;;;13.80;1.00;;;;;;2268472;61;988;-87
2023/01/01 22:49:02;1622775.00;5.41;2876.34;87567.00;0.29;152.11;;;;;13.70;1.00;;;;;;2268246;61;918;-87
2023/01/01 22:51:38;1220251.00;4.07;2126.88;110843.00;0.37;192.28;;;;;13.80;1.00;;;;;;2268293;61;2014;-86
2023/01/01 22:54:05;348610.00;1.16;601.47;90950.00;0.30;157.95;;;;;13.80;1.00;;;;;;2268211;61;902;-87
2023/01/01 22:56:32;173846.00;0.58;300.89;0.00;0.00;0.62;;;;;14.00;1.00;;;;;;2268334;61;1083;-87
2023/01/01 22:58:59;144938.00;0.48;251.08;0.00;0.00;0.62;;;;;14.30;1.00;;;;;;2268322;61;1585;-87
2023/01/01 23:01:26;80058.00;0.27;139.14;0.00;0.00;0.62;;;;;14.40;1.00;;;;;;2268187;61;1302;-87
2023/01/01 23:03:53;347445.00;1.16;599.47;10952.00;0.04;19.60;;;;;14.40;1.00;;;;;;2268134;61;1885;-88
2023/01/01 23:06:21;196815.00;0.66;340.44;0.00;0.00;0.62;;;;;14.60;1.00;;;;;;2268241;61;2025;-88
2023/01/01 23:08:53;2134388.00;7.11;3904.02;203439.00;0.68;351.84;;;;;14.40;1.00;;;;;;2268426;61;1070;-88
2023/01/01 23:11:22;1380061.00;4.60;2419.39;94427.00;0.31;163.95;;;;;14.50;1.00;;;;;;2268255;61;2001;-87
2023/01/01 23:16:35;28950.00;0.10;50.77;0.00;0.00;0.62;;;;;14.60;1.00;;;;;;2268367;61;809;-87
2023/01/01 23:19:03;73488.00;0.24;127.79;0.00;0.00;0.62;;;;;14.80;1.00;;;;;;2268250;61;1063;-86
2023/01/01 23:21:33;93250.00;0.31;161.92;0.00;0.00;0.62;;;;;14.80;1.00;;;;;;2268269;61;1269;-88
2023/01/01 23:24:04;52449.00;0.17;91.42;0.00;0.00;0.62;;;;;14.80;1.00;;;;;;2268272;61;1458;-88
2023/01/01 23:26:32;960391.00;3.20;1662.44;36478.00;0.12;63.79;;;;;14.80;1.00;;;;;;2268297;61;1069;-87
2023/01/01 23:28:58;469821.00;1.57;809.88;51063.00;0.17;89.02;;;;;14.70;1.00;;;;;;2268169;61;997;-87
2023/01/01 23:31:27;184647.00;0.62;319.49;0.00;0.00;0.62;;;;;14.50;1.00;;;;;;2268103;61;1993;-88
2023/01/01 23:33:56;176846.00;0.59;306.06;0.00;0.00;0.62;;;;;14.70;1.00;;;;;;2268093;61;1003;-86
2023/01/01 23:36:23;112101.00;0.37;194.46;0.00;0.00;0.62;;;;;14.90;1.00;;;;;;2268208;61;1027;-87
2023/01/01 23:38:50;346113.00;1.15;597.18;13106.00;0.04;23.33;;;;;14.90;1.00;;;;;;2268105;61;1557;-89
2023/01/01 23:41:18;1075362.00;3.58;1866.42;15772.00;0.05;27.95;;;;;14.90;1.00;;;;;;2268082;61;1300;-88
2023/01/01 23:43:45;383869.00;1.28;662.08;26824.00;0.09;47.09;;;;;15.00;1.00;;;;;;2267936;61;1151;-87
2023/01/01 23:46:13;162773.00;0.54;281.82;0.00;0.00;0.62;;;;;15.00;1.00;;;;;;2268236;61;1140;-86
2023/01/01 23:48:41;97438.00;0.32;169.15;0.00;0.00;0.62;;;;;14.80;1.00;;;;;;2268213;61;1010;-87
2023/01/01 23:51:09;103991.00;0.35;180.46;0.00;0.00;0.62;;;;;14.70;1.00;;;;;;2268104;61;1279;-86
2023/01/01 23:53:36;549396.00;1.83;946.92;29614.00;0.10;51.91;;;;;14.60;1.00;;;;;;2267960;61;1926;-87
2023/01/01 23:56:03;1641311.00;5.47;2911.95;91393.00;0.30;158.71;;;;;14.40;1.00;;;;;;2268014;61;1694;-86
2023/01/01 23:58:34;615917.00;2.05;1061.71;124793.00;0.42;216.35;;;;;14.40;1.00;;;;;;2268220;61;1014;-88
